Time;durP1;ratioP1;P1;durP2;ratioP2;P2;SDS_P1;SDS_P2;PMS_P1;PMS_P2;Temp;Humidity;BMP_temperature;BMP_pressure;BME280_temperature;BME280_humidity;BME280_pressure;Samples;Min_cycle;Max_cycle;Signal;HPM_P1;HPM_P2
2021/08/07 00:01:02;;;;;;;5.63;3.30;;;;;;;18.46;82.35;99603.81;5115815;28;20503;-75
2021/08/07 00:03:31;;;;;;;4.75;3.40;;;;;;;18.45;82.37;99609.38;5115499;28;20123;-75
2021/08/07 00:06:08;;;;;;;4.85;3.30;;;;;;;18.43;82.78;99608.66;5115661;28;20040;-75
2021/08/07 00:08:36;;;;;;;5.75;3.30;;;;;;;18.41;83.20;99611.50;5115239;28;20044;-75
2021/08/07 00:11:04;;;;;;;5.65;3.55;;;;;;;18.37;82.84;99612.84;5115495;28;20478;-75
2021/08/07 00:13:33;;;;;;;7.55;3.63;;;;;;;18.37;83.18;99606.59;5115150;28;20473;-75
2021/08/07 00:16:02;;;;;;;5.35;3.25;;;;;;;18.35;83.14;99608.63;5115015;28;20085;-75
2021/08/07 00:18:30;;;;;;;5.95;3.38;;;;;;;18.35;83.54;99611.31;5115217;28;20040;-76
2021/08/07 00:20:58;;;;;;;7.43;3.53;;;;;;;18.31;84.18;99606.22;5115377;28;20036;-78
2021/08/07 00:23:27;;;;;;;6.55;3.63;;;;;;;18.30;84.16;99612.63;5115218;28;20053;-79
2021/08/07 00:25:55;;;;;;;6.15;3.35;;;;;;;18.28;83.96;99598.44;5115224;28;20492;-78
2021/08/07 00:28:23;;;;;;;8.55;3.70;;;;;;;18.26;84.16;99603.16;5115433;28;20043;-77
2021/08/07 00:30:51;;;;;;;7.43;3.55;;;;;;;18.24;84.21;99599.78;5115173;28;20096;-77
2021/08/07 00:33:21;;;;;;;6.30;3.97;;;;;;;18.22;84.75;99612.56;5115039;28;20503;-77
2021/08/07 00:35:49;;;;;;;5.95;3.28;;;;;;;18.19;85.99;99607.47;5114983;28;20078;-78
2021/08/07 00:38:17;;;;;;;6.13;3.22;;;;;;;18.02;87.46;99605.63;5115168;28;20040;-76
2021/08/07 00:40:46;;;;;;;6.32;3.63;;;;;;;17.89;88.74;99605.19;5114582;28;20062;-75
2021/08/07 00:43:14;;;;;;;6.90;3.72;;;;;;;17.82;89.37;99604.09;5114965;28;20043;-75
2021/08/07 00:45:42;;;;;;;6.55;3.08;;;;;;;17.77;90.61;99601.88;5113158;28;20054;-75
2021/08/07 00:48:11;;;;;;;5.40;3.85;;;;;;;17.76;91.22;99599.31;5115089;28;20396;-75
2021/08/07 00:50:40;;;;;;;5.75;3.50;;;;;;;17.69;91.77;99601.78;5114408;28;20046;-75
2021/08/07 00:53:09;;;;;;;7.28;3.50;;;;;;;17.71;91.75;99607.88;5114575;28;20139;-75
2021/08/07 00:55:39;;;;;;;6.25;3.85;;;;;;;17.72;91.23;99612.28;5114353;28;20043;-75
2021/08/07 00:58:08;;;;;;;8.18;4.03;;;;;;;17.72;91.55;99613.13;5114687;28;20051;-75
2021/08/07 01:00:36;;;;;;;5.47;3.63;;;;;;;17.74;91.52;99611.09;5114134;28;20044;-75
2021/08/07 01:03:11;;;;;;;6.55;3.65;;;;;;;17.74;91.15;99611.09;5114720;28;20035;-75
2021/08/07 01:05:48;;;;;;;5.85;3.58;;;;;;;17.74;91.28;99607.56;5114127;28;20042;-75
2021/08/07 01:08:19;;;;;;;6.03;3.63;;;;;;;17.72;91.47;99615.81;5114634;28;20054;-74
2021/08/07 01:10:56;;;;;;;7.15;4.05;;;;;;;17.70;91.66;99620.53;5114122;28;20055;-74
2021/08/07 01:13:27;;;;;;;8.80;4.00;;;;;;;17.70;91.50;99628.63;5114445;28;20039;-75
2021/08/07 01:16:00;;;;;;;7.82;4.13;;;;;;;17.68;91.12;99625.19;5114110;28;20088;-76
2021/08/07 01:18:30;;;;;;;6.97;3.95;;;;;;;17.64;92.00;99626.47;5114130;28;20035;-76
2021/08/07 01:21:00;;;;;;;7.38;4.15;;;;;;;17.58;92.19;99621.72;5114067;28;20039;-76
2021/08/07 01:23:41;;;;;;;5.63;3.90;;;;;;;17.61;92.26;99615.16;5114143;28;20046;-77
2021/08/07 01:26:15;;;;;;;5.30;3.88;;;;;;;17.60;92.52;99622.41;5113757;28;20122;-75
2021/08/07 01:28:47;;;;;;;6.13;3.65;;;;;;;17.58;93.00;99627.13;5112722;28;20059;-73
2021/08/07 01:31:19;;;;;;;5.80;3.80;;;;;;;17.56;92.59;99621.00;5113982;28;20515;-74
2021/08/07 01:33:48;;;;;;;5.45;3.72;;;;;;;17.55;93.25;99635.47;5113606;28;20050;-75
2021/08/07 01:36:17;;;;;;;6.65;3.67;;;;;;;17.56;93.29;99637.19;5114025;28;20054;-82
2021/08/07 01:38:47;;;;;;;6.70;4.00;;;;;;;17.53;93.25;99631.25;5113598;28;20112;-82
2021/08/07 01:41:17;;;;;;;6.95;4.55;;;;;;;17.51;93.13;99627.88;5113880;28;20046;-82
2021/08/07 01:43:47;;;;;;;6.80;4.75;;;;;;;17.52;92.94;99625.00;5113605;28;20411;-81
2021/08/07 01:46:18;;;;;;;7.85;4.60;;;;;;;17.54;93.15;99623.00;5113730;28;20052;-82
2021/08/07 01:48:53;;;;;;;7.00;4.80;;;;;;;17.54;92.90;99625.69;5113374;28;20039;-79
2021/08/07 01:51:25;;;;;;;10.63;5.00;;;;;;;17.53;93.28;99629.41;5113836;28;20044;-75
2021/08/07 01:53:59;;;;;;;8.02;4.95;;;;;;;17.52;93.30;99633.09;5113391;28;20467;-76
2021/08/07 01:56:30;;;;;;;7.70;5.00;;;;;;;17.54;93.25;99636.47;5113634;28;20442;-75
2021/08/07 01:59:04;;;;;;;7.55;4.90;;;;;;;17.54;93.14;99635.63;5113849;28;20384;-78
2021/08/07 02:01:32;;;;;;;9.02;5.30;;;;;;;17.53;93.54;99637.50;5113552;28;20043;-78
2021/08/07 02:04:02;;;;;;;8.20;5.15;;;;;;;17.54;93.49;99628.41;5112444;28;20075;-78
2021/08/07 02:06:32;;;;;;;8.05;5.45;;;;;;;17.56;93.38;99631.78;5113326;28;20067;-78
2021/08/07 02:09:01;;;;;;;9.88;5.88;;;;;;;17.57;93.22;99617.34;5113327;28;20142;-78
2021/08/07 02:11:30;;;;;;;8.98;5.25;;;;;;;17.63;92.87;99621.25;5113591;28;20040;-79
2021/08/07 02:14:01;;;;;;;10.02;5.65;;;;;;;17.68;92.45;99625.19;5113490;28;20058;-78
2021/08/07 02:16:30;;;;;;;9.10;5.25;;;;;;;17.71;92.23;99624.91;5113364;28;20092;-78
2021/08/07 02:19:00;;;;;;;10.63;5.70;;;;;;;17.71;92.15;99626.75;5113355;28;20074;-78
2021/08/07 02:21:29;;;;;;;9.60;5.53;;;;;;;17.67;92.26;99639.69;5113214;28;20130;-78
2021/08/07 02:23:58;;;;;;;8.23;5.25;;;;;;;17.66;92.04;99627.22;5113475;28;20036;-77
2021/08/07 02:26:27;;;;;;;8.73;5.35;;;;;;;17.64;91.98;99628.34;5113633;28;20085;-77
2021/08/07 02:28:56;;;;;;;9.25;5.50;;;;;;;17.60;92.26;99630.50;5113102;28;20122;-77
2021/08/07 02:31:27;;;;;;;10.00;5.57;;;;;;;17.58;92.56;99627.13;5111987;28;20515;-78
2021/08/07 02:33:56;;;;;;;9.85;5.75;;;;;;;17.52;93.09;99635.78;5113073;28;20046;-78
2021/08/07 02:36:25;;;;;;;10.05;5.85;;;;;;;17.49;92.66;99635.25;5113445;28;20051;-79
2021/08/07 02:38:53;;;;;;;9.80;5.65;;;;;;;17.49;92.60;99637.97;5115503;28;20465;-78
2021/08/07 02:41:23;;;;;;;10.50;5.90;;;;;;;17.45;91.74;99640.09;5117186;28;20051;-78
2021/08/07 02:43:52;;;;;;;9.30;5.75;;;;;;;17.47;91.08;99643.50;5116901;28;20047;-81
2021/08/07 02:46:20;;;;;;;11.25;5.90;;;;;;;17.38;91.78;99644.41;5117358;28;20047;-79
2021/08/07 02:48:51;;;;;;;7.78;4.97;;;;;;;17.38;91.10;99649.81;5117001;28;20067;-80
2021/08/07 02:51:21;;;;;;;10.63;5.45;;;;;;;17.27;91.83;99645.44;5117273;28;20047;-80
2021/08/07 02:53:50;;;;;;;7.20;5.00;;;;;;;17.20;91.94;99651.59;5116831;28;20044;-79
2021/08/07 02:56:19;;;;;;;9.80;5.65;;;;;;;17.11;92.20;99646.09;5117145;28;20130;-78
2021/08/07 02:58:48;;;;;;;8.70;5.65;;;;;;;17.07;92.55;99651.91;5116709;28;20047;-79
2021/08/07 03:01:16;;;;;;;8.90;4.97;;;;;;;17.09;91.96;99644.56;5116751;28;20044;-78
2021/08/07 03:03:45;;;;;;;8.18;5.07;;;;;;;17.19;91.55;99645.34;5116813;27;20062;-78
2021/08/07 03:06:15;;;;;;;10.57;5.70;;;;;;;17.19;91.40;99653.44;5116981;28;20039;-78
2021/08/07 03:08:43;;;;;;;8.70;5.53;;;;;;;17.29;90.35;99658.78;5116438;28;20065;-79
2021/08/07 03:11:11;;;;;;;9.80;5.40;;;;;;;17.17;90.58;99656.25;5115364;28;20055;-79
2021/08/07 03:13:39;;;;;;;8.10;5.18;;;;;;;17.10;90.71;99667.81;5116135;28;20039;-79
2021/08/07 03:16:08;;;;;;;8.13;5.18;;;;;;;17.09;90.90;99671.50;5116337;28;20063;-79
2021/08/07 03:18:36;;;;;;;10.27;5.47;;;;;;;16.92;91.71;99665.03;5116381;28;20036;-79
2021/08/07 03:21:04;;;;;;;9.45;5.60;;;;;;;16.90;91.89;99669.72;5115526;28;20498;-78
2021/08/07 03:23:34;;;;;;;10.88;5.15;;;;;;;16.94;91.50;99668.41;5116535;28;20047;-78
2021/08/07 03:26:03;;;;;;;11.10;5.50;;;;;;;17.00;91.18;99673.22;5116393;28;20046;-78
2021/08/07 03:28:31;;;;;;;12.80;5.53;;;;;;;16.95;91.19;99680.88;5116612;28;20044;-73
2021/08/07 03:31:01;;;;;;;10.02;5.25;;;;;;;16.82;92.03;99680.38;5116681;28;20049;-74
2021/08/07 03:33:29;;;;;;;9.40;5.72;;;;;;;16.78;92.03;99684.34;5116620;28;20036;-74
2021/08/07 03:35:58;;;;;;;8.52;5.55;;;;;;;16.82;91.42;99677.69;5115970;28;20048;-75
2021/08/07 03:38:26;;;;;;;10.13;5.50;;;;;;;16.73;92.58;99686.63;5116123;28;20043;-72
2021/08/07 03:40:56;;;;;;;9.55;5.45;;;;;;;16.81;91.84;99682.22;5115719;28;20445;-79
2021/08/07 03:43:25;;;;;;;9.30;5.65;;;;;;;16.77;92.28;99690.72;5116534;28;20463;-79
2021/08/07 03:45:53;;;;;;;8.43;5.20;;;;;;;16.79;92.04;99697.69;5115778;28;20044;-79
2021/08/07 03:48:22;;;;;;;9.13;5.60;;;;;;;16.80;92.16;99695.84;5115778;28;20435;-79
2021/08/07 03:50:50;;;;;;;8.95;5.45;;;;;;;16.78;92.54;99701.34;5115610;28;20120;-75
2021/08/07 03:53:18;;;;;;;11.68;5.55;;;;;;;16.79;92.46;99704.88;5115824;28;20071;-75
2021/08/07 03:55:46;;;;;;;8.60;5.82;;;;;;;16.89;92.09;99700.34;5115820;28;20542;-74
2021/08/07 03:58:16;;;;;;;9.57;5.30;;;;;;;16.97;91.44;99697.75;5115906;28;20050;-73
2021/08/07 04:00:44;;;;;;;7.20;5.07;;;;;;;17.04;90.88;99700.72;5115322;28;20055;-75
2021/08/07 04:03:15;;;;;;;7.68;5.55;;;;;;;17.02;91.16;99702.72;5115609;28;20089;-75
2021/08/07 04:05:43;;;;;;;7.45;5.32;;;;;;;17.04;91.34;99706.94;5115284;28;20071;-75
2021/08/07 04:08:11;;;;;;;8.45;5.68;;;;;;;17.14;90.83;99690.75;5115801;28;20035;-75
2021/08/07 04:10:40;;;;;;;7.03;5.45;;;;;;;17.58;88.98;99696.38;5115510;28;20043;-76
2021/08/07 04:13:08;;;;;;;7.82;5.28;;;;;;;18.36;84.27;99691.31;5115607;28;20198;-75
2021/08/07 04:15:38;;;;;;;6.97;5.03;;;;;;;18.86;80.81;99686.16;5115486;28;20084;-75
2021/08/07 04:18:07;;;;;;;8.05;5.13;;;;;;;19.37;77.60;99685.22;5115343;28;20052;-75
2021/08/07 04:20:37;;;;;;;10.02;5.55;;;;;;;19.67;75.79;99683.00;5115406;28;20118;-75
2021/08/07 04:23:06;;;;;;;8.10;5.55;;;;;;;19.79;75.27;99686.28;5115432;28;20050;-75
2021/08/07 04:25:35;;;;;;;7.85;5.40;;;;;;;19.92;74.83;99687.47;5115522;28;20047;-76
2021/08/07 04:28:03;;;;;;;6.75;5.28;;;;;;;20.15;73.91;99684.13;5114915;28;20039;-77
2021/08/07 04:30:31;;;;;;;14.02;5.95;;;;;;;20.11;74.16;99689.03;5115167;28;20044;-74
2021/08/07 04:33:02;;;;;;;14.27;6.38;;;;;;;19.86;74.86;99685.44;5114969;28;20240;-75
2021/08/07 04:35:30;;;;;;;14.75;6.30;;;;;;;19.39;77.19;99679.66;5115408;28;20043;-75
2021/08/07 04:37:59;;;;;;;17.38;6.25;;;;;;;19.17;78.44;99679.22;5114964;28;20044;-75
2021/08/07 04:40:30;;;;;;;11.57;5.90;;;;;;;19.20;78.76;99688.00;5115028;28;20058;-75
2021/08/07 04:42:58;;;;;;;15.90;7.15;;;;;;;19.29;78.61;99687.03;5114698;28;20049;-75
2021/08/07 04:45:26;;;;;;;11.68;6.13;;;;;;;19.35;78.50;99692.66;5114829;28;20039;-75
2021/08/07 04:47:56;;;;;;;19.10;6.25;;;;;;;19.65;77.34;99693.16;5114675;28;20044;-75
2021/08/07 04:50:28;;;;;;;14.65;6.57;;;;;;;20.08;75.05;99688.53;5114943;28;20408;-75
2021/08/07 04:52:57;;;;;;;12.50;5.85;;;;;;;20.28;74.31;99690.75;5114546;28;20051;-75
2021/08/07 04:55:25;;;;;;;12.60;5.97;;;;;;;20.66;73.15;99690.28;5114657;28;20035;-75
2021/08/07 04:57:54;;;;;;;11.55;5.75;;;;;;;21.21;70.60;99675.94;5114246;28;20408;-75
2021/08/07 05:00:23;;;;;;;10.90;5.47;;;;;;;21.57;68.98;99682.59;5114055;28;20044;-74
2021/08/07 05:02:51;;;;;;;10.57;5.20;;;;;;;21.54;69.29;99679.41;5114302;28;20036;-74
2021/08/07 05:05:19;;;;;;;9.57;5.55;;;;;;;21.26;70.21;99685.28;5114555;28;20140;-74
2021/08/07 05:07:49;;;;;;;14.00;5.72;;;;;;;20.85;72.13;99687.22;5114227;27;20048;-75
2021/08/07 05:10:19;;;;;;;11.93;5.85;;;;;;;20.72;72.70;99684.16;5114389;28;20061;-75
2021/08/07 05:12:47;;;;;;;12.25;5.65;;;;;;;20.62;73.30;99688.91;5113940;28;20044;-74
2021/08/07 05:15:15;;;;;;;13.68;5.63;;;;;;;20.75;72.79;99692.81;5114358;28;20059;-74
2021/08/07 05:17:44;;;;;;;9.20;5.50;;;;;;;20.99;71.79;99705.47;5113954;28;20431;-75
2021/08/07 05:20:13;;;;;;;9.80;5.45;;;;;;;21.26;70.96;99711.53;5114250;28;20040;-77
2021/08/07 05:22:41;;;;;;;11.05;5.72;;;;;;;22.05;68.57;99713.22;5113959;28;20074;-77
2021/08/07 05:25:11;;;;;;;9.55;5.85;;;;;;;22.51;66.20;99718.72;5114382;28;20540;-76
2021/08/07 05:27:39;;;;;;;8.20;5.25;;;;;;;22.69;65.87;99715.69;5114371;28;20460;-80
2021/08/07 05:30:09;;;;;;;8.88;5.30;;;;;;;22.91;64.96;99717.53;5113859;28;20147;-79
2021/08/07 05:32:37;;;;;;;10.40;5.55;;;;;;;23.55;62.08;99714.31;5114182;28;20373;-81
2021/08/07 05:35:07;;;;;;;8.63;5.50;;;;;;;23.72;61.44;99707.63;5113501;28;20404;-80
2021/08/07 05:37:39;;;;;;;8.30;5.40;;;;;;;23.86;60.68;99712.22;5113911;28;20047;-80
2021/08/07 05:40:08;;;;;;;9.30;6.10;;;;;;;24.09;59.79;99706.63;5113831;28;20043;-77
2021/08/07 05:42:39;;;;;;;8.45;5.70;;;;;;;24.12;60.20;99699.94;5113961;28;20487;-77
2021/08/07 05:45:08;;;;;;;9.02;5.78;;;;;;;24.33;59.48;99700.00;5113407;28;20126;-77
2021/08/07 05:47:36;;;;;;;9.02;5.60;;;;;;;24.61;58.86;99710.09;5113645;28;20067;-75
2021/08/07 05:50:05;;;;;;;11.55;5.40;;;;;;;24.50;59.21;99709.56;5113523;28;20047;-75
2021/08/07 05:52:34;;;;;;;9.98;6.03;;;;;;;24.75;58.25;99712.75;5113665;27;20131;-75
2021/08/07 05:55:03;;;;;;;11.85;5.63;;;;;;;24.95;57.73;99720.25;5113528;28;20439;-75
2021/08/07 05:57:32;;;;;;;13.38;6.25;;;;;;;25.11;57.46;99714.53;5113682;28;20422;-75
2021/08/07 06:00:02;;;;;;;8.77;5.28;;;;;;;25.20;56.47;99707.03;5113121;28;20507;-76
2021/08/07 06:02:32;;;;;;;9.20;4.90;;;;;;;25.24;57.43;99708.31;5112034;28;20162;-76
2021/08/07 06:05:03;;;;;;;8.52;5.00;;;;;;;25.04;57.35;99708.19;5113186;28;20568;-76
2021/08/07 06:07:31;;;;;;;8.65;5.25;;;;;;;25.22;57.07;99715.88;5113521;28;20039;-76
2021/08/07 06:10:00;;;;;;;9.05;4.82;;;;;;;25.30;56.58;99721.19;5113012;28;20089;-76
2021/08/07 06:12:28;;;;;;;11.05;5.03;;;;;;;25.24;56.63;99716.50;5113158;28;20036;-76
2021/08/07 06:14:57;;;;;;;9.75;4.95;;;;;;;25.53;56.07;99713.53;5112839;28;20055;-76
2021/08/07 06:17:26;;;;;;;7.35;4.35;;;;;;;25.51;55.75;99718.34;5113201;28;20055;-76
2021/08/07 06:19:55;;;;;;;8.95;5.05;;;;;;;25.62;55.56;99727.84;5113213;28;20065;-76
2021/08/07 06:22:23;;;;;;;6.85;4.78;;;;;;;25.56;55.61;99726.78;5112133;28;20047;-75
2021/08/07 06:24:51;;;;;;;8.60;5.00;;;;;;;25.58;55.82;99721.97;5112983;28;20074;-75
2021/08/07 06:27:19;;;;;;;8.90;5.18;;;;;;;25.76;55.90;99717.88;5112147;28;20052;-75
2021/08/07 06:29:47;;;;;;;10.93;5.20;;;;;;;25.98;55.49;99713.97;5112865;28;20070;-77
2021/08/07 06:32:16;;;;;;;8.23;4.95;;;;;;;25.90;54.85;99717.72;5113355;28;20039;-76
2021/08/07 06:34:45;;;;;;;7.57;4.88;;;;;;;26.21;53.93;99719.91;5113260;28;20093;-72
2021/08/07 06:37:13;;;;;;;8.32;4.88;;;;;;;26.38;53.42;99716.84;5113169;28;20071;-72
2021/08/07 06:39:41;;;;;;;9.52;5.60;;;;;;;26.20;53.81;99725.59;5113189;28;20056;-71
2021/08/07 06:42:09;;;;;;;10.43;5.07;;;;;;;26.39;53.32;99727.56;5112706;28;20075;-75
2021/08/07 06:44:38;;;;;;;8.25;5.20;;;;;;;26.34;54.36;99726.47;5113237;28;20035;-76
2021/08/07 06:47:06;;;;;;;7.80;4.93;;;;;;;26.59;53.14;99724.88;5112774;28;20071;-74
2021/08/07 06:49:35;;;;;;;8.63;5.10;;;;;;;26.73;52.16;99722.97;5113139;28;20461;-74
2021/08/07 06:52:06;;;;;;;10.18;4.88;;;;;;;27.13;50.96;99728.50;5112484;28;20044;-75
2021/08/07 06:54:34;;;;;;;6.35;4.60;;;;;;;27.20;51.65;99732.88;5113001;28;20377;-74
2021/08/07 06:57:02;;;;;;;7.63;4.22;;;;;;;27.45;49.47;99724.00;5112732;28;20043;-73
2021/08/07 06:59:31;;;;;;;6.28;4.00;;;;;;;27.62;49.45;99722.47;5113096;28;20476;-73
2021/08/07 07:02:02;;;;;;;5.80;3.40;;;;;;;27.85;48.78;99720.09;5112515;28;20040;-74
2021/08/07 07:04:30;;;;;;;5.05;2.90;;;;;;;27.55;48.85;99721.66;5113006;28;20040;-78
2021/08/07 07:06:58;;;;;;;4.82;2.60;;;;;;;27.23;49.96;99721.53;5112535;28;20039;-72
2021/08/07 07:09:28;;;;;;;4.72;2.97;;;;;;;27.06;50.59;99720.28;5113104;28;20051;-70
2021/08/07 07:11:56;;;;;;;7.03;2.85;;;;;;;26.93;50.54;99717.53;5114663;28;20461;-73
2021/08/07 07:14:27;;;;;;;4.38;2.50;;;;;;;26.87;50.96;99721.09;5113031;28;20092;-83
2021/08/07 07:16:57;;;;;;;4.70;2.17;;;;;;;26.43;52.36;99719.78;5112757;28;20408;-78
2021/08/07 07:19:29;;;;;;;4.00;2.35;;;;;;;26.27;52.55;99717.44;5112698;28;20046;-80
2021/08/07 07:21:58;;;;;;;5.43;2.42;;;;;;;26.40;53.44;99722.94;5112629;28;20072;-75
2021/08/07 07:24:27;;;;;;;6.82;2.40;;;;;;;26.36;52.72;99718.91;5114326;28;20135;-82
2021/08/07 07:26:56;;;;;;;4.43;2.45;;;;;;;26.32;53.07;99723.09;5116169;28;20035;-81
2021/08/07 07:29:24;;;;;;;5.47;2.67;;;;;;;26.29;52.36;99723.53;5116357;28;20488;-76
2021/08/07 07:31:56;;;;;;;6.03;3.60;;;;;;;26.19;52.06;99722.03;5115973;28;20130;-77
2021/08/07 07:34:24;;;;;;;4.53;2.50;;;;;;;26.18;52.18;99727.69;5116250;28;20061;-79
2021/08/07 07:36:53;;;;;;;3.92;2.00;;;;;;;26.10;53.03;99736.94;5115940;28;20111;-78
2021/08/07 07:39:21;;;;;;;4.10;2.10;;;;;;;26.20;51.61;99739.25;5114877;28;20054;-81
2021/08/07 07:41:50;;;;;;;6.80;2.70;;;;;;;26.04;52.27;99737.72;5116103;28;20096;-79
2021/08/07 07:44:18;;;;;;;5.85;2.67;;;;;;;25.94;52.82;99738.13;5115881;27;20043;-76
2021/08/07 07:46:47;;;;;;;5.05;2.47;;;;;;;25.94;52.35;99735.38;5114612;28;20062;-73
2021/08/07 07:49:15;;;;;;;5.78;2.28;;;;;;;25.86;52.00;99735.56;5115586;28;20447;-72
2021/08/07 07:51:43;;;;;;;4.10;2.40;;;;;;;25.85;52.76;99741.22;5115724;28;20043;-71
2021/08/07 07:54:11;;;;;;;5.13;2.30;;;;;;;25.91;52.61;99737.69;5115289;28;20040;-71
2021/08/07 07:56:40;;;;;;;4.80;2.10;;;;;;;25.82;51.47;99736.19;5115768;28;20323;-72
2021/08/07 07:59:09;;;;;;;6.68;2.30;;;;;;;25.93;50.39;99736.44;5115491;28;20408;-72
2021/08/07 08:01:37;;;;;;;4.47;2.40;;;;;;;25.95;51.36;99734.34;5115874;28;20134;-71
2021/08/07 08:04:06;;;;;;;6.63;2.50;;;;;;;25.94;51.20;99737.28;5115105;27;20090;-71
2021/08/07 08:06:35;;;;;;;7.15;2.50;;;;;;;25.79;52.10;99729.25;5115574;28;20071;-73
2021/08/07 08:09:03;;;;;;;6.28;2.38;;;;;;;25.85;52.14;99733.88;5115354;28;20040;-71
2021/08/07 08:11:31;;;;;;;3.30;1.92;;;;;;;25.86;51.01;99742.91;5115510;28;20040;-71
2021/08/07 08:14:00;;;;;;;4.80;1.92;;;;;;;25.80;50.52;99736.38;5115313;27;20100;-71
2021/08/07 08:16:31;;;;;;;3.40;1.88;;;;;;;25.83;49.14;99725.03;5115237;27;20044;-70
2021/08/07 08:18:59;;;;;;;3.17;1.70;;;;;;;25.83;49.78;99735.13;5115427;28;20047;-71
2021/08/07 08:21:28;;;;;;;3.42;1.73;;;;;;;25.78;49.01;99729.44;5114544;28;20073;-71
2021/08/07 08:23:56;;;;;;;4.40;1.80;;;;;;;25.89;48.88;99728.88;5114800;28;20046;-76
2021/08/07 08:26:24;;;;;;;2.75;1.48;;;;;;;25.93;48.36;99724.66;5114412;28;20073;-73
2021/08/07 08:28:52;;;;;;;3.65;1.90;;;;;;;25.95;49.23;99722.56;5115431;28;20488;-72
2021/08/07 08:31:20;;;;;;;4.13;2.15;;;;;;;25.93;48.76;99720.03;5115068;28;20118;-75
2021/08/07 08:33:50;;;;;;;3.28;1.70;;;;;;;26.02;48.10;99723.44;5105054;28;20054;-74
2021/08/07 08:36:18;;;;;;;4.32;1.95;;;;;;;25.97;48.66;99731.44;5093977;28;20064;-77
2021/08/07 08:38:47;;;;;;;4.88;1.95;;;;;;;25.85;48.78;99731.16;5094527;28;20044;-77
2021/08/07 08:41:15;;;;;;;3.65;1.80;;;;;;;25.87;48.61;99730.97;5094749;28;20126;-79
2021/08/07 08:43:44;;;;;;;3.00;1.77;;;;;;;25.91;49.12;99732.22;5094113;28;20465;-74
2021/08/07 08:46:13;;;;;;;4.15;1.98;;;;;;;25.98;49.21;99738.56;5094582;28;20051;-72
2021/08/07 08:48:45;;;;;;;3.25;1.98;;;;;;;26.08;49.40;99740.91;5094502;28;20577;-73
2021/08/07 08:51:25;;;;;;;2.88;1.67;;;;;;;26.09;46.16;99740.72;5094229;28;20097;-75
2021/08/07 08:53:54;;;;;;;3.45;1.75;;;;;;;25.86;48.03;99737.44;5094245;28;20056;-74
2021/08/07 08:56:26;;;;;;;4.25;1.90;;;;;;;25.90;48.44;99744.22;5094202;28;20503;-75
2021/08/07 08:58:55;;;;;;;3.70;1.95;;;;;;;26.00;48.56;99741.09;5094680;28;20461;-74
2021/08/07 09:01:23;;;;;;;4.22;1.80;;;;;;;26.08;47.84;99739.03;5094143;28;20350;-74
2021/08/07 09:03:52;;;;;;;4.95;2.10;;;;;;;26.10;47.39;99741.53;5104510;28;20097;-72
2021/08/07 09:06:22;;;;;;;3.83;1.80;;;;;;;26.10;46.75;99736.94;5131041;27;20065;-72
2021/08/07 09:09:03;;;;;;;3.78;1.75;;;;;;;26.19;47.44;99741.16;5114636;28;20048;-70
2021/08/07 09:11:32;;;;;;;3.40;1.88;;;;;;;26.21;47.87;99732.75;5114500;28;20100;-73
2021/08/07 09:14:24;;;;;;;3.33;1.65;;;;;;;26.22;48.74;99729.81;5114063;28;20523;-70
2021/08/07 09:17:14;;;;;;;3.65;1.80;;;;;;;26.13;47.88;99727.47;5114337;28;20052;-73
2021/08/07 09:20:03;;;;;;;4.78;1.95;;;;;;;26.15;48.70;99739.91;5114539;28;20042;-74
2021/08/07 09:22:34;;;;;;;3.88;1.90;;;;;;;26.31;47.67;99727.72;5112794;28;20047;-74
2021/08/07 09:25:08;;;;;;;3.67;1.80;;;;;;;26.37;47.29;99745.22;5114170;28;20435;-72
2021/08/07 09:27:38;;;;;;;2.83;1.70;;;;;;;26.46;45.96;99741.25;5114339;28;20040;-75
2021/08/07 09:30:28;;;;;;;5.22;2.00;;;;;;;26.51;46.15;99744.19;5114187;28;20043;-73
2021/08/07 09:32:59;;;;;;;2.75;1.60;;;;;;;26.52;46.03;99740.41;5113671;28;20417;-75
2021/08/07 09:35:28;;;;;;;3.40;1.70;;;;;;;26.53;45.04;99736.63;5113781;28;20066;-72
2021/08/07 09:38:19;;;;;;;3.97;1.65;;;;;;;26.61;45.04;99736.44;5109787;28;20043;-74
2021/08/07 09:40:51;;;;;;;3.78;1.95;;;;;;;26.68;45.68;99740.03;5111196;28;20054;-71
2021/08/07 09:43:22;;;;;;;4.97;2.15;;;;;;;26.77;45.20;99737.94;5113788;28;20097;-69
2021/08/07 09:46:06;;;;;;;4.28;2.10;;;;;;;26.81;45.86;99744.66;5113999;28;20058;-69
2021/08/07 09:48:40;;;;;;;3.97;2.30;;;;;;;26.98;44.52;99734.97;5113553;28;20580;-71
2021/08/07 09:51:19;;;;;;;7.25;2.80;;;;;;;27.13;43.51;99732.06;5113912;28;20047;-69
2021/08/07 09:54:06;;;;;;;5.80;2.92;;;;;;;27.17;43.23;99736.06;5113702;28;20050;-69
2021/08/07 09:56:49;;;;;;;8.68;3.00;;;;;;;27.16;43.71;99734.38;5113874;28;20127;-69
2021/08/07 09:59:22;;;;;;;5.18;2.35;;;;;;;27.16;43.11;99715.22;5113503;28;20442;-69
2021/08/07 10:01:51;;;;;;;5.93;2.63;;;;;;;27.12;43.83;99713.97;5113688;28;20476;-69
2021/08/07 10:04:21;;;;;;;5.75;2.53;;;;;;;27.18;43.66;99724.03;5112223;28;20134;-71
2021/08/07 10:07:05;;;;;;;6.32;2.50;;;;;;;27.17;43.61;99722.38;5113704;28;20165;-71
2021/08/07 10:09:36;;;;;;;6.28;2.90;;;;;;;27.23;43.85;99713.31;5113541;28;20065;-71
2021/08/07 10:12:07;;;;;;;;;;;;;;;27.32;42.60;99717.50;5114129;28;20051;-71
2021/08/07 10:14:37;;;;;;;5.05;2.40;;;;;;;27.43;42.81;99720.66;5113436;28;19927;-72
2021/08/07 10:17:07;;;;;;;5.57;2.55;;;;;;;27.50;41.57;99715.97;5113180;28;20070;-70
2021/08/07 10:19:36;;;;;;;5.25;2.35;;;;;;;27.55;41.75;99713.44;5113356;28;20508;-71
2021/08/07 10:22:06;;;;;;;4.90;2.20;;;;;;;27.61;39.79;99712.59;5112677;28;20062;-74
2021/08/07 10:24:38;;;;;;;5.72;2.40;;;;;;;27.54;39.05;99711.75;5113288;28;20043;-77
2021/08/07 10:27:07;;;;;;;3.67;2.30;;;;;;;27.60;40.12;99713.63;5113251;28;20101;-76
2021/08/07 10:29:39;;;;;;;4.05;2.00;;;;;;;27.61;40.40;99707.09;5101273;28;20040;-77
2021/08/07 10:32:08;;;;;;;4.38;2.13;;;;;;;27.71;38.79;99695.72;5111912;28;20381;-75
2021/08/07 10:34:39;;;;;;;5.60;2.10;;;;;;;27.74;38.96;99707.09;5112670;28;20036;-75
2021/08/07 10:37:09;;;;;;;3.90;2.20;;;;;;;27.76;38.25;99694.00;5112703;28;20044;-75
2021/08/07 10:39:40;;;;;;;4.28;2.17;;;;;;;27.71;38.87;99702.03;5112690;28;20039;-73
2021/08/07 10:42:14;;;;;;;6.32;2.10;;;;;;;27.75;37.95;99703.28;5113323;28;20036;-78
2021/08/07 10:44:44;;;;;;;3.83;1.90;;;;;;;27.76;38.11;99694.00;5113192;28;20047;-75
2021/08/07 10:47:12;;;;;;;4.00;1.90;;;;;;;27.93;38.36;99695.19;5112058;28;20059;-78
2021/08/07 10:49:42;;;;;;;5.50;1.58;;;;;;;27.99;37.70;99696.22;5113011;28;20054;-77
2021/08/07 10:52:35;;;;;;;5.60;2.10;;;;;;;28.04;37.79;99679.13;5113223;28;20044;-73
2021/08/07 10:55:24;;;;;;;5.78;2.20;;;;;;;28.15;37.64;99682.00;5103430;28;20055;-75
2021/08/07 10:57:53;;;;;;;5.07;1.85;;;;;;;28.14;37.52;99687.69;5113099;28;20062;-76
2021/08/07 11:00:23;;;;;;;4.07;2.00;;;;;;;28.10;38.06;99681.81;5115925;28;20046;-78
2021/08/07 11:03:13;;;;;;;6.45;2.15;;;;;;;28.09;38.16;99665.59;5117141;28;20396;-72
2021/08/07 11:05:51;;;;;;;3.72;1.70;;;;;;;28.14;37.52;99668.50;5116865;28;20048;-79
2021/08/07 11:08:21;;;;;;;3.85;1.70;;;;;;;28.18;37.77;99667.00;5116516;28;20048;-77
2021/08/07 11:10:50;;;;;;;4.05;1.75;;;;;;;28.31;37.83;99664.22;5116775;28;20051;-78
2021/08/07 11:13:23;;;;;;;5.18;1.80;;;;;;;28.37;37.10;99662.47;5116630;28;20051;-75
2021/08/07 11:16:20;;;;;;;4.28;1.90;;;;;;;28.34;36.96;99651.94;5116600;28;20047;-74
2021/08/07 11:18:49;;;;;;;4.00;1.65;;;;;;;28.42;36.63;99658.00;5116759;28;20435;-69
2021/08/07 11:21:51;;;;;;;3.80;1.90;;;;;;;28.30;37.36;99657.06;5116045;28;20096;-67
2021/08/07 11:24:52;;;;;;;4.38;1.80;;;;;;;28.45;37.36;99649.31;5116402;28;20039;-71
2021/08/07 11:28:03;;;;;;;3.25;1.73;;;;;;;28.49;36.98;99644.25;5116148;28;20035;-71
2021/08/07 11:30:33;;;;;;;5.50;1.75;;;;;;;28.49;37.03;99642.34;5116126;28;20035;-69
2021/08/07 11:33:22;;;;;;;5.93;1.95;;;;;;;28.38;37.71;99644.97;5116112;28;20067;-70
2021/08/07 11:36:03;;;;;;;6.15;2.10;;;;;;;28.55;37.54;99647.97;5116029;28;20047;-70
2021/08/07 11:38:31;;;;;;;4.22;1.90;;;;;;;28.60;37.55;99648.16;5116151;27;20047;-70
2021/08/07 11:41:02;;;;;;;4.63;1.80;;;;;;;28.62;37.12;99649.63;5116465;28;20043;-70
2021/08/07 11:43:33;;;;;;;4.47;2.00;;;;;;;28.69;37.53;99652.31;5116175;28;20092;-70
2021/08/07 11:46:07;;;;;;;5.07;1.90;;;;;;;28.64;37.36;99652.13;5116316;28;20047;-70
2021/08/07 11:48:37;;;;;;;4.55;1.70;;;;;;;28.68;37.52;99648.72;5116046;28;20392;-70